Terminal Aerodrome Forecast
Issued by NWS

Home | Current Version | Previous Version | Text Only | Print | Product List | Glossary On
Versions: 1 2 3 4 5 6 7 8 9 10 11 12 13 14 15 16 17 18
000
FTUS43 KABR 282000 AAA
TAFMBG
TAF AMD
KMBG 282000Z 2820/2918 30019G26KT P6SM SCT150
     FM290300 33015KT P6SM SCT200
     FM290500 33008KT P6SM FEW200
     FM291400 32013KT P6SM SCT090
     FM291700 32018G25KT P6SM BKN050=

USA.gov is the U.S. government's official web portal to all federal, state and local government web resources and services.